Time;durP1;ratioP1;P1;durP2;ratioP2;P2;SDS_P1;SDS_P2;PMS_P1;PMS_P2;Temp;Humidity;BMP_temperature;BMP_pressure;BME280_temperature;BME280_humidity;BME280_pressure;Samples;Min_cycle;Max_cycle;Signal;HPM_P1;HPM_P2
2023/03/20 00:01:25;;;;;;;3.42;1.50;;;8.20;80.00;;;;;;5047799;28;20120;-74
2023/03/20 00:03:51;;;;;;;3.40;2.25;;;8.30;80.00;;;;;;5032444;28;20026;-73
2023/03/20 00:06:22;;;;;;;3.33;2.17;;;8.30;79.70;;;;;;5031200;28;20032;-74
2023/03/20 00:08:50;;;;;;;2.58;1.92;;;8.20;79.50;;;;;;5032148;28;20033;-75
2023/03/20 00:11:32;;;;;;;5.47;1.77;;;8.30;79.60;;;;;;5034350;28;20018;-74
2023/03/20 00:14:01;;;;;;;2.72;1.92;;;8.30;79.70;;;;;;5035714;28;20049;-74
2023/03/20 00:16:33;;;;;;;3.13;2.13;;;8.30;79.90;;;;;;5035665;28;20104;-74
2023/03/20 00:18:58;;;;;;;5.57;1.70;;;8.30;80.00;;;;;;5035693;28;20018;-74
2023/03/20 00:21:24;;;;;;;2.47;1.77;;;8.30;80.00;;;;;;5035760;28;20083;-73
2023/03/20 00:23:50;;;;;;;3.35;1.65;;;8.30;79.80;;;;;;5035703;28;20100;-73
2023/03/20 00:26:18;;;;;;;1.67;1.52;;;8.30;79.80;;;;;;5035666;28;20112;-74
2023/03/20 00:28:46;;;;;;;2.33;1.38;;;8.30;79.70;;;;;;5035484;28;20031;-74
2023/03/20 00:31:33;;;;;;;3.22;1.60;;;8.30;79.90;;;;;;5035481;28;20026;-73
2023/03/20 00:34:01;;;;;;;4.55;1.92;;;8.40;79.40;;;;;;5035311;28;20067;-73
2023/03/20 00:36:27;;;;;;;3.85;1.77;;;8.40;79.30;;;;;;5034115;28;20037;-74
2023/03/20 00:38:53;;;;;;;2.28;1.42;;;8.40;79.10;;;;;;5035033;28;20770;-73
2023/03/20 00:41:37;;;;;;;2.38;1.40;;;8.40;79.00;;;;;;5035316;28;20060;-74
2023/03/20 00:44:23;;;;;;;2.75;1.92;;;8.30;79.00;;;;;;5035145;28;20022;-74
2023/03/20 00:46:58;;;;;;;1.90;1.33;;;8.30;79.30;;;;;;5035145;28;20030;-73
2023/03/20 00:49:31;;;;;;;3.42;1.67;;;8.30;79.10;;;;;;5035080;28;20045;-74
2023/03/20 00:51:57;;;;;;;2.83;1.90;;;8.30;79.00;;;;;;5035201;28;20021;-74
2023/03/20 00:54:23;;;;;;;1.73;1.30;;;8.30;79.10;;;;;;5035025;28;20025;-74
2023/03/20 00:57:06;;;;;;;3.38;1.63;;;8.30;79.20;;;;;;5034990;28;20779;-73
2023/03/20 00:59:38;;;;;;;2.20;1.40;;;8.30;79.40;;;;;;5033771;28;20108;-74
2023/03/20 01:02:04;;;;;;;1.77;1.30;;;8.30;79.30;;;;;;5034977;28;20048;-76
2023/03/20 01:04:35;;;;;;;2.63;1.42;;;8.30;79.30;;;;;;5034740;28;20026;-72
2023/03/20 01:07:01;;;;;;;2.10;1.52;;;8.30;79.20;;;;;;5034931;28;20100;-75
2023/03/20 01:09:27;;;;;;;1.70;1.35;;;8.30;79.20;;;;;;5034756;28;20052;-73
2023/03/20 01:11:53;;;;;;;2.92;1.70;;;8.20;79.10;;;;;;5034696;28;20026;-73
2023/03/20 01:14:18;;;;;;;2.40;1.63;;;8.20;79.30;;;;;;5034672;28;20386;-74
2023/03/20 01:16:44;;;;;;;1.70;1.42;;;8.20;79.50;;;;;;5034596;28;20327;-73
2023/03/20 01:19:13;;;;;;;1.95;1.75;;;8.20;79.50;;;;;;5034607;28;20171;-74
2023/03/20 01:21:39;;;;;;;1.65;1.48;;;8.20;79.40;;;;;;5034239;28;20049;-74
2023/03/20 01:24:05;;;;;;;1.73;1.42;;;8.30;79.60;;;;;;5034528;28;20024;-74
2023/03/20 01:26:40;;;;;;;2.47;1.60;;;8.30;79.60;;;;;;5034567;28;20025;-75
2023/03/20 01:29:17;;;;;;;1.90;1.50;;;8.30;79.70;;;;;;5034492;28;20021;-74
2023/03/20 01:31:43;;;;;;;2.15;1.55;;;8.30;79.70;;;;;;5034422;28;20017;-73
2023/03/20 01:34:10;;;;;;;3.75;1.58;;;8.30;79.70;;;;;;5034455;28;20029;-75
2023/03/20 01:36:36;;;;;;;1.08;0.77;;;8.30;79.90;;;;;;5034327;28;20030;-75
2023/03/20 01:39:02;;;;;;;1.55;0.80;;;8.30;80.00;;;;;;5034113;28;20076;-74
2023/03/20 01:41:29;;;;;;;2.72;1.27;;;8.30;79.80;;;;;;5049628;28;20021;-74
2023/03/20 01:43:55;;;;;;;1.48;0.98;;;8.30;79.60;;;;;;5034149;28;20501;-74
2023/03/20 01:46:27;;;;;;;2.10;1.00;;;8.20;79.70;;;;;;5034048;28;20033;-74
2023/03/20 01:48:53;;;;;;;3.58;1.00;;;8.20;79.90;;;;;;5034020;28;20021;-74
2023/03/20 01:51:24;;;;;;;2.78;1.00;;;8.20;80.20;;;;;;5034020;28;20021;-75
2023/03/20 01:54:00;;;;;;;0.47;0.47;;;8.20;80.30;;;;;;5033901;28;20457;-76
2023/03/20 01:56:29;;;;;;;0.60;0.60;;;8.20;80.20;;;;;;5034063;28;20038;-75
2023/03/20 01:59:02;;;;;;;1.02;0.70;;;8.20;80.20;;;;;;5032613;28;20363;-75
2023/03/20 02:01:29;;;;;;;1.23;0.70;;;8.20;80.10;;;;;;5033816;28;20061;-75
2023/03/20 02:03:55;;;;;;;1.00;0.90;;;8.20;80.30;;;;;;5033790;28;20021;-75
2023/03/20 02:06:23;;;;;;;2.92;0.80;;;8.20;80.30;;;;;;5033879;28;20048;-75
2023/03/20 02:08:51;;;;;;;1.52;0.70;;;8.20;80.40;;;;;;5033659;28;20430;-75
2023/03/20 02:11:21;;;;;;;1.80;0.80;;;8.20;80.50;;;;;;5032585;28;20022;-75
2023/03/20 02:13:48;;;;;;;1.33;0.80;;;8.20;80.40;;;;;;5033612;28;20026;-75
2023/03/20 02:16:15;;;;;;;1.08;0.90;;;8.30;80.40;;;;;;5033475;28;20219;-75
2023/03/20 02:18:44;;;;;;;0.95;0.95;;;8.30;80.10;;;;;;5033557;28;20025;-75
2023/03/20 02:21:30;;;;;;;1.23;0.85;;;8.40;79.90;;;;;;5033605;28;20029;-75
2023/03/20 02:24:14;;;;;;;0.90;0.80;;;8.50;79.90;;;;;;5033413;28;20017;-74
2023/03/20 02:27:18;;;;;;;3.08;1.17;;;8.40;79.50;;;;;;5033603;28;20028;-75
2023/03/20 02:29:54;;;;;;;1.05;0.98;;;8.40;79.60;;;;;;5032758;28;20060;-75
2023/03/20 02:32:31;;;;;;;1.75;0.70;;;8.40;79.40;;;;;;5033307;28;20025;-74
2023/03/20 02:35:18;;;;;;;1.20;0.98;;;8.40;79.30;;;;;;5032913;28;20053;-74
2023/03/20 02:37:59;;;;;;;1.30;1.13;;;8.40;79.50;;;;;;5032828;28;20398;-74
2023/03/20 02:40:38;;;;;;;1.30;1.05;;;8.30;79.40;;;;;;5033028;28;20470;-74
2023/03/20 02:43:24;;;;;;;1.65;0.88;;;8.40;79.40;;;;;;5033237;28;20076;-74
2023/03/20 02:46:15;;;;;;;2.28;1.17;;;8.40;79.40;;;;;;5032907;28;20022;-75
2023/03/20 02:48:52;;;;;;;0.95;0.80;;;8.30;79.40;;;;;;5033011;28;20029;-75
2023/03/20 02:51:28;;;;;;;1.10;1.00;;;8.30;79.40;;;;;;5032937;28;20052;-75
2023/03/20 02:54:04;;;;;;;2.58;0.90;;;8.30;79.50;;;;;;5033042;28;20024;-74
2023/03/20 02:56:42;;;;;;;2.70;0.98;;;8.20;79.50;;;;;;5033007;28;20033;-74
2023/03/20 02:59:24;;;;;;;3.03;1.15;;;8.20;79.70;;;;;;5033086;28;20021;-74
2023/03/20 03:01:55;;;;;;;0.80;0.80;;;8.10;80.30;;;;;;5032965;28;20494;-75
2023/03/20 03:04:28;;;;;;;1.90;1.10;;;8.20;80.30;;;;;;5033020;28;20025;-75
2023/03/20 03:06:57;;;;;;;0.90;0.75;;;8.20;80.40;;;;;;5033128;28;20018;-74
2023/03/20 03:09:29;;;;;;;0.93;0.70;;;8.20;80.20;;;;;;5032875;28;20013;-75
2023/03/20 03:12:23;;;;;;;2.67;0.90;;;8.20;80.50;;;;;;5032882;28;20022;-75
2023/03/20 03:14:58;;;;;;;2.85;0.80;;;8.20;80.30;;;;;;5029584;28;20034;-75
2023/03/20 03:17:25;;;;;;;;;;;8.20;80.30;;;;;;5033313;28;20029;-74
2023/03/20 03:19:54;;;;;;;1.33;0.90;;;8.20;80.40;;;;;;5032847;28;20328;-75
2023/03/20 03:22:20;;;;;;;1.05;0.60;;;8.20;80.60;;;;;;5032717;28;20064;-75
2023/03/20 03:24:55;;;;;;;1.27;0.90;;;8.30;80.70;;;;;;5033073;28;20397;-75
2023/03/20 03:27:26;;;;;;;0.57;0.50;;;8.30;80.40;;;;;;5033822;28;20026;-76
2023/03/20 03:29:56;;;;;;;2.00;0.80;;;8.30;80.30;;;;;;5032769;28;20057;-75
2023/03/20 03:32:26;;;;;;;0.98;0.88;;;8.40;80.20;;;;;;5033407;28;20101;-75
2023/03/20 03:34:52;;;;;;;2.35;0.80;;;8.40;80.00;;;;;;5038336;28;20121;-75
2023/03/20 03:37:29;;;;;;;1.10;1.00;;;8.40;79.90;;;;;;5034901;28;20029;-75
2023/03/20 03:40:24;;;;;;;1.63;1.00;;;8.40;79.80;;;;;;5033587;28;20025;-75
2023/03/20 03:43:02;;;;;;;1.38;1.08;;;8.40;79.80;;;;;;5032454;28;20021;-75
2023/03/20 03:45:43;;;;;;;1.27;0.80;;;8.40;79.80;;;;;;5035105;28;20389;-75
2023/03/20 03:48:18;;;;;;;0.70;0.70;;;8.50;79.80;;;;;;5035098;28;20509;-75
2023/03/20 03:50:48;;;;;;;2.78;1.10;;;8.50;79.60;;;;;;5036459;28;20022;-76
2023/03/20 03:53:21;;;;;;;1.88;1.10;;;8.50;79.60;;;;;;5036315;28;20029;-75
2023/03/20 03:55:53;;;;;;;1.50;1.20;;;8.50;79.40;;;;;;5036092;28;20034;-75
2023/03/20 03:58:28;;;;;;;1.17;1.08;;;8.50;79.60;;;;;;5036273;28;20049;-75
2023/03/20 04:00:56;;;;;;;1.27;1.00;;;8.50;79.60;;;;;;5036250;28;20052;-76
2023/03/20 04:03:27;;;;;;;1.73;1.40;;;8.50;79.50;;;;;;5036264;28;20026;-75
2023/03/20 04:05:55;;;;;;;2.17;1.48;;;8.50;79.60;;;;;;5035897;28;20100;-76
2023/03/20 04:08:21;;;;;;;2.40;1.33;;;8.50;79.50;;;;;;5034613;28;20026;-76
2023/03/20 04:10:46;;;;;;;2.80;1.60;;;8.50;79.60;;;;;;5035790;28;20376;-75
2023/03/20 04:13:12;;;;;;;2.35;1.25;;;8.50;79.60;;;;;;5035690;28;20056;-75
2023/03/20 04:15:38;;;;;;;2.38;1.30;;;8.50;79.80;;;;;;5035705;28;20037;-75
2023/03/20 04:18:04;;;;;;;1.50;1.20;;;8.50;79.90;;;;;;5035664;28;20017;-76
2023/03/20 04:20:29;;;;;;;2.00;1.27;;;8.50;80.00;;;;;;5035663;28;20036;-76
2023/03/20 04:22:55;;;;;;;2.97;1.20;;;8.50;80.10;;;;;;5035534;28;20101;-75
2023/03/20 04:25:23;;;;;;;1.75;1.40;;;8.50;80.00;;;;;;5034171;28;20417;-75
2023/03/20 04:27:49;;;;;;;1.75;1.52;;;8.50;80.20;;;;;;5035423;28;20017;-75
2023/03/20 04:30:15;;;;;;;1.77;1.50;;;8.60;80.20;;;;;;5035516;28;20091;-75
2023/03/20 04:32:41;;;;;;;4.13;3.50;;;8.50;80.20;;;;;;5035292;28;20529;-75
2023/03/20 04:35:07;;;;;;;5.60;4.38;;;8.60;80.30;;;;;;5035139;28;20033;-74
2023/03/20 04:37:33;;;;;;;5.43;3.63;;;8.60;80.20;;;;;;5035036;28;20120;-75
2023/03/20 04:39:58;;;;;;;6.93;3.38;;;8.50;80.20;;;;;;5035181;28;20072;-76
2023/03/20 04:42:24;;;;;;;3.15;2.50;;;8.50;80.20;;;;;;5035104;28;20026;-75
2023/03/20 04:44:50;;;;;;;4.20;2.08;;;8.40;80.30;;;;;;5035139;28;20108;-75
2023/03/20 04:47:15;;;;;;;4.47;1.45;;;8.40;80.50;;;;;;5035130;28;20104;-75
2023/03/20 04:49:41;;;;;;;2.03;1.52;;;8.40;80.50;;;;;;5035049;28;20036;-75
2023/03/20 04:52:06;;;;;;;2.00;1.80;;;8.30;80.60;;;;;;5034891;28;20026;-75
2023/03/20 04:54:32;;;;;;;3.95;1.70;;;8.40;80.90;;;;;;5033427;28;20029;-75
2023/03/20 04:56:57;;;;;;;3.60;2.45;;;8.40;80.80;;;;;;5033770;28;20538;-75
2023/03/20 04:59:23;;;;;;;2.20;1.60;;;8.40;80.60;;;;;;5034780;28;20030;-75
2023/03/20 05:01:49;;;;;;;2.85;1.30;;;8.40;80.40;;;;;;5034751;28;20030;-75
2023/03/20 05:04:15;;;;;;;1.80;1.60;;;8.40;80.40;;;;;;5034842;28;20029;-75
2023/03/20 05:06:40;;;;;;;1.50;1.30;;;8.40;80.40;;;;;;5034721;28;20018;-75
2023/03/20 05:09:06;;;;;;;1.85;1.38;;;8.40;80.60;;;;;;5034725;28;20455;-74
2023/03/20 05:11:31;;;;;;;1.75;1.33;;;8.50;80.60;;;;;;5033404;28;20032;-74
2023/03/20 05:13:57;;;;;;;2.10;1.38;;;8.50;80.40;;;;;;5034590;28;20028;-75
2023/03/20 05:16:22;;;;;;;2.20;1.50;;;8.40;80.20;;;;;;5033198;28;20042;-75
2023/03/20 05:18:48;;;;;;;5.07;1.60;;;8.50;80.30;;;;;;5034519;28;20095;-75
2023/03/20 05:21:14;;;;;;;1.38;1.27;;;8.50;80.30;;;;;;5034429;28;20032;-75
2023/03/20 05:23:39;;;;;;;1.77;1.40;;;8.50;80.20;;;;;;5034405;28;20032;-75
2023/03/20 05:26:06;;;;;;;3.30;1.40;;;8.60;80.20;;;;;;5034312;28;20463;-74
2023/03/20 05:28:31;;;;;;;3.25;1.75;;;8.60;80.20;;;;;;5034169;28;20108;-74
2023/03/20 05:30:57;;;;;;;1.88;1.52;;;8.60;80.20;;;;;;5033252;28;20108;-74
2023/03/20 05:33:23;;;;;;;3.90;1.92;;;8.60;79.80;;;;;;5034197;28;20045;-75
2023/03/20 05:35:48;;;;;;;9.30;3.85;;;8.60;80.00;;;;;;5033916;28;20090;-75
2023/03/20 05:38:14;;;;;;;5.43;2.42;;;8.50;79.80;;;;;;5034036;28;20045;-75
2023/03/20 05:40:40;;;;;;;7.90;3.05;;;8.50;80.10;;;;;;5032856;28;20033;-75
2023/03/20 05:43:07;;;;;;;5.45;2.72;;;8.40;80.40;;;;;;5033975;28;20405;-75
2023/03/20 05:45:32;;;;;;;4.70;2.50;;;8.30;80.70;;;;;;5033993;28;20040;-75
2023/03/20 05:47:58;;;;;;;2.83;2.47;;;8.30;80.80;;;;;;5033837;28;20021;-75
2023/03/20 05:50:24;;;;;;;3.90;2.20;;;8.40;80.90;;;;;;5033879;28;20022;-76
2023/03/20 05:52:49;;;;;;;3.67;2.08;;;8.40;80.80;;;;;;5033852;28;20021;-74
2023/03/20 05:55:15;;;;;;;3.60;2.33;;;8.50;80.90;;;;;;5033495;28;20037;-75
2023/03/20 05:57:41;;;;;;;4.85;2.38;;;8.50;81.00;;;;;;5033765;28;20029;-74
2023/03/20 06:00:09;;;;;;;3.83;2.55;;;8.50;80.80;;;;;;5033600;28;20501;-74
2023/03/20 06:02:35;;;;;;;5.60;3.53;;;8.50;80.70;;;;;;5033598;28;20021;-74
2023/03/20 06:05:01;;;;;;;6.57;3.70;;;8.50;80.70;;;;;;5033547;28;20466;-74
2023/03/20 06:07:27;;;;;;;8.68;4.72;;;8.50;80.70;;;;;;5033088;28;20037;-75
2023/03/20 06:09:53;;;;;;;7.95;3.95;;;8.50;80.60;;;;;;5031709;28;20026;-75
2023/03/20 06:12:18;;;;;;;5.10;3.08;;;8.50;80.60;;;;;;5033368;28;20052;-75
2023/03/20 06:14:44;;;;;;;6.25;3.03;;;8.50;80.70;;;;;;5033299;28;20038;-73
2023/03/20 06:17:09;;;;;;;4.60;3.00;;;8.60;80.70;;;;;;5033259;28;20100;-73
2023/03/20 06:19:35;;;;;;;5.75;2.42;;;8.60;80.60;;;;;;5032951;28;20033;-73
2023/03/20 06:22:01;;;;;;;4.13;2.22;;;8.60;80.50;;;;;;5032991;28;20041;-74
2023/03/20 06:24:26;;;;;;;3.22;2.50;;;8.60;80.50;;;;;;5032855;28;20467;-75
2023/03/20 06:26:52;;;;;;;3.85;2.42;;;8.70;80.40;;;;;;5032605;28;20025;-75
2023/03/20 06:29:18;;;;;;;2.50;2.00;;;8.70;80.40;;;;;;5032483;28;20033;-75
2023/03/20 06:31:43;;;;;;;5.60;2.30;;;8.80;80.30;;;;;;5031206;28;20076;-74
2023/03/20 06:34:09;;;;;;;2.58;1.60;;;8.80;80.30;;;;;;5032370;28;20045;-73
2023/03/20 06:36:35;;;;;;;1.85;1.40;;;8.80;79.30;;;;;;5032475;28;20111;-74
2023/03/20 06:39:02;;;;;;;2.58;1.95;;;8.80;79.10;;;;;;5032833;28;20049;-74
2023/03/20 06:41:27;;;;;;;3.03;2.03;;;8.90;79.20;;;;;;5032182;28;20107;-75
2023/03/20 06:43:53;;;;;;;2.13;1.73;;;8.90;78.60;;;;;;5032752;28;20044;-75
2023/03/20 06:46:18;;;;;;;2.45;1.63;;;8.90;78.40;;;;;;5032557;28;20037;-75
2023/03/20 06:48:44;;;;;;;3.50;1.80;;;8.80;76.00;;;;;;5032358;28;20029;-74
2023/03/20 06:51:10;;;;;;;4.57;1.30;;;8.90;75.60;;;;;;5032700;28;20389;-73
2023/03/20 06:53:35;;;;;;;3.90;2.92;;;8.90;74.90;;;;;;5032774;28;20017;-75
2023/03/20 06:56:01;;;;;;;2.33;1.30;;;8.90;74.60;;;;;;5032639;28;20041;-74
2023/03/20 06:58:27;;;;;;;4.88;2.58;;;8.90;74.40;;;;;;5032613;28;20024;-74
2023/03/20 07:00:53;;;;;;;7.20;2.70;;;8.80;74.70;;;;;;5032415;28;20036;-76
2023/03/20 07:03:19;;;;;;;3.30;1.85;;;8.80;75.10;;;;;;5032113;28;20071;-73
2023/03/20 07:05:45;;;;;;;2.45;1.25;;;8.90;74.40;;;;;;5032313;28;20029;-75
2023/03/20 07:08:10;;;;;;;3.65;1.30;;;9.00;73.50;;;;;;5032466;28;20026;-75
2023/03/20 07:10:36;;;;;;;2.25;1.13;;;8.90;73.70;;;;;;5032454;28;20047;-76
2023/03/20 07:13:02;;;;;;;1.05;0.95;;;9.00;74.00;;;;;;5032541;28;20049;-76
2023/03/20 07:15:28;;;;;;;0.95;0.93;;;9.00;73.30;;;;;;5032260;28;20040;-76
2023/03/20 07:17:54;;;;;;;1.42;1.15;;;9.10;73.00;;;;;;5030982;28;20028;-75
2023/03/20 07:20:20;;;;;;;1.48;1.23;;;9.10;72.70;;;;;;5034393;28;20100;-75
2023/03/20 07:22:47;;;;;;;3.83;2.33;;;9.10;72.50;;;;;;5036321;28;20041;-76
2023/03/20 07:25:14;;;;;;;4.75;3.30;;;9.20;71.60;;;;;;5034987;28;20029;-80
2023/03/20 07:27:40;;;;;;;3.78;1.10;;;9.30;70.00;;;;;;5036278;28;20454;-78
2023/03/20 07:30:07;;;;;;;4.88;2.13;;;9.40;70.10;;;;;;5036222;28;20036;-91
2023/03/20 07:32:33;;;;;;;3.63;1.40;;;9.60;71.10;;;;;;5035237;28;20021;-76
2023/03/20 07:34:59;;;;;;;3.08;2.47;;;9.70;70.50;;;;;;5035068;28;20036;-81
2023/03/20 07:37:25;;;;;;;2.85;1.63;;;10.00;71.20;;;;;;5036071;28;20029;-76
2023/03/20 07:39:50;;;;;;;3.45;1.83;;;10.10;68.90;;;;;;5036245;28;20121;-76
2023/03/20 07:42:16;;;;;;;2.75;1.42;;;10.10;66.50;;;;;;5036149;28;20478;-75
2023/03/20 07:44:42;;;;;;;3.72;1.95;;;10.00;66.70;;;;;;5036379;28;20081;-75
2023/03/20 07:47:07;;;;;;;4.22;2.10;;;9.90;67.70;;;;;;5041911;28;20204;-75
2023/03/20 07:49:34;;;;;;;7.97;3.53;;;9.80;68.60;;;;;;5037685;28;20060;-76
2023/03/20 07:51:59;;;;;;;2.72;1.95;;;9.70;69.40;;;;;;5037195;28;20528;-75
2023/03/20 07:54:25;;;;;;;4.15;1.67;;;9.60;69.20;;;;;;5035984;28;20029;-76
2023/03/20 07:56:51;;;;;;;1.92;1.63;;;9.60;69.70;;;;;;5034737;28;20029;-75
2023/03/20 07:59:17;;;;;;;4.30;1.52;;;9.60;69.60;;;;;;5035886;28;20013;-75
2023/03/20 08:01:42;;;;;;;3.40;1.83;;;9.50;70.70;;;;;;5035477;28;20386;-75
2023/03/20 08:04:08;;;;;;;3.70;1.60;;;9.50;71.20;;;;;;5035846;28;20048;-75
2023/03/20 08:06:34;;;;;;;4.32;1.55;;;9.40;71.80;;;;;;5035699;28;20029;-76
2023/03/20 08:08:59;;;;;;;2.17;1.50;;;9.40;72.00;;;;;;5035482;28;20104;-75
2023/03/20 08:11:25;;;;;;;5.60;3.10;;;9.50;71.80;;;;;;5035541;28;20092;-75
2023/03/20 08:13:51;;;;;;;2.72;1.40;;;9.50;71.60;;;;;;5035540;28;20041;-75
2023/03/20 08:16:16;;;;;;;1.55;1.45;;;9.40;71.30;;;;;;5034232;28;20084;-75
2023/03/20 08:18:42;;;;;;;2.88;1.40;;;9.40;71.90;;;;;;5035382;28;20029;-75
2023/03/20 08:21:07;;;;;;;4.05;1.73;;;9.30;73.30;;;;;;5035664;28;20508;-75
2023/03/20 08:23:33;;;;;;;2.28;1.63;;;9.40;73.40;;;;;;5035687;28;20478;-75
2023/03/20 08:25:59;;;;;;;3.22;1.63;;;9.40;71.60;;;;;;5035283;28;20036;-75
2023/03/20 08:28:24;;;;;;;2.47;1.88;;;9.50;71.60;;;;;;5035214;28;20470;-75
2023/03/20 08:30:50;;;;;;;3.28;2.10;;;9.40;71.10;;;;;;5034342;28;20029;-75
2023/03/20 08:33:17;;;;;;;2.60;1.90;;;9.60;70.90;;;;;;5035187;28;20029;-75
2023/03/20 08:35:43;;;;;;;3.78;1.95;;;9.60;70.70;;;;;;5035093;28;20029;-75
2023/03/20 08:38:12;;;;;;;4.32;2.65;;;9.70;70.90;;;;;;5034908;28;20056;-75
2023/03/20 08:40:40;;;;;;;2.65;1.73;;;9.80;70.30;;;;;;5035072;28;20028;-75
2023/03/20 08:43:06;;;;;;;2.97;1.90;;;9.70;69.40;;;;;;5034951;28;20327;-75
2023/03/20 08:45:32;;;;;;;2.35;1.48;;;9.70;69.90;;;;;;5033662;28;20557;-75
2023/03/20 08:47:58;;;;;;;4.68;2.35;;;9.70;69.20;;;;;;5034968;28;20112;-75
2023/03/20 08:50:23;;;;;;;2.03;1.27;;;9.70;69.60;;;;;;5034733;28;20152;-75
2023/03/20 08:52:49;;;;;;;1.15;1.02;;;9.70;68.10;;;;;;5034675;28;20470;-75
2023/03/20 08:55:16;;;;;;;2.17;1.30;;;9.80;67.60;;;;;;5034481;28;20055;-75
2023/03/20 08:57:42;;;;;;;5.50;1.17;;;9.90;66.60;;;;;;5034618;28;20022;-75
2023/03/20 09:00:11;;;;;;;1.42;0.70;;;9.90;64.40;;;;;;5034686;28;20025;-75
2023/03/20 09:02:37;;;;;;;2.08;1.40;;;9.90;63.40;;;;;;5034444;28;20100;-76
2023/03/20 09:05:02;;;;;;;1.83;0.90;;;10.00;60.70;;;;;;5034404;28;20485;-75
2023/03/20 09:07:28;;;;;;;0.70;0.60;;;10.20;60.40;;;;;;5034350;28;20029;-75
2023/03/20 09:09:54;;;;;;;1.17;0.77;;;10.00;59.70;;;;;;5034359;28;20113;-75
2023/03/20 09:12:19;;;;;;;0.93;0.40;;;10.10;59.50;;;;;;5034184;28;20436;-75
2023/03/20 09:14:45;;;;;;;1.10;1.00;;;10.10;57.60;;;;;;5032913;28;20433;-75
2023/03/20 09:17:10;;;;;;;0.40;0.40;;;10.30;58.40;;;;;;5034426;28;20033;-75
2023/03/20 09:19:38;;;;;;;0.77;0.57;;;10.40;57.00;;;;;;5034114;28;20458;-75
2023/03/20 09:22:05;;;;;;;3.97;0.70;;;10.50;57.50;;;;;;5034194;28;20112;-75
2023/03/20 09:24:31;;;;;;;0.63;0.32;;;10.70;54.40;;;;;;5034294;28;20072;-75
2023/03/20 09:26:57;;;;;;;0.90;0.52;;;10.80;55.10;;;;;;5034065;28;20397;-75
2023/03/20 09:29:23;;;;;;;0.77;0.40;;;11.20;54.70;;;;;;5034127;28;20025;-76
2023/03/20 09:31:49;;;;;;;1.38;0.73;;;11.30;52.70;;;;;;5034043;28;20051;-76
2023/03/20 09:34:14;;;;;;;2.90;1.52;;;11.30;53.00;;;;;;5032152;28;20459;-74
2023/03/20 09:36:40;;;;;;;1.15;0.40;;;11.50;52.10;;;;;;5031644;28;20083;-75
2023/03/20 09:39:06;;;;;;;1.83;0.20;;;11.70;51.50;;;;;;5032409;28;20046;-74
2023/03/20 09:41:35;;;;;;;0.65;0.40;;;11.70;49.00;;;;;;5032520;28;20014;-74
2023/03/20 09:44:13;;;;;;;0.30;0.22;;;11.70;50.20;;;;;;5032380;28;20148;-75
2023/03/20 09:47:15;;;;;;;0.50;0.20;;;11.60;50.50;;;;;;5029317;28;20132;-74
2023/03/20 09:49:53;;;;;;;1.67;0.50;;;11.40;51.70;;;;;;5031329;28;20022;-74
2023/03/20 09:52:38;;;;;;;0.57;0.50;;;11.30;51.50;;;;;;5030771;28;20033;-74
2023/03/20 09:55:17;;;;;;;1.52;0.95;;;11.30;53.00;;;;;;5029961;28;20033;-75
2023/03/20 09:57:53;;;;;;;2.05;1.02;;;11.50;52.20;;;;;;5032582;28;20037;-76
2023/03/20 10:00:23;;;;;;;0.82;0.68;;;11.70;52.70;;;;;;5032785;28;20083;-75
2023/03/20 10:02:53;;;;;;;1.80;1.30;;;11.70;52.00;;;;;;5030279;28;20048;-74
2023/03/20 10:05:23;;;;;;;1.63;1.10;;;11.80;52.30;;;;;;5032140;28;20025;-74
2023/03/20 10:07:50;;;;;;;1.35;1.20;;;11.90;52.00;;;;;;5029685;28;20091;-74
2023/03/20 10:10:19;;;;;;;3.50;0.73;;;11.90;52.50;;;;;;5031418;28;20083;-77
2023/03/20 10:12:44;;;;;;;2.15;0.90;;;11.70;53.00;;;;;;5033108;28;20018;-73
2023/03/20 10:15:26;;;;;;;0.98;0.70;;;11.40;53.80;;;;;;5033028;28;20060;-75
2023/03/20 10:17:58;;;;;;;2.95;0.85;;;11.50;53.30;;;;;;5032117;28;20506;-75
2023/03/20 10:20:35;;;;;;;0.98;0.60;;;11.50;53.80;;;;;;5033333;28;20351;-74
2023/03/20 10:23:27;;;;;;;0.90;0.70;;;11.60;52.10;;;;;;5033107;28;20040;-73
2023/03/20 10:26:01;;;;;;;0.55;0.55;;;11.80;52.80;;;;;;5031438;28;20033;-74
2023/03/20 10:28:31;;;;;;;2.95;0.93;;;11.80;52.00;;;;;;5033134;28;20093;-73
2023/03/20 10:31:17;;;;;;;1.20;0.88;;;11.70;52.90;;;;;;5031498;28;20025;-75
2023/03/20 10:34:06;;;;;;;1.42;0.98;;;11.50;53.90;;;;;;5032845;28;20355;-76
2023/03/20 10:36:37;;;;;;;2.55;1.55;;;11.60;53.20;;;;;;5032697;28;20121;-74
2023/03/20 10:39:21;;;;;;;2.28;1.02;;;11.60;53.50;;;;;;5032507;28;20045;-75
2023/03/20 10:41:56;;;;;;;3.85;1.10;;;11.70;54.00;;;;;;5032959;28;20033;-74
2023/03/20 10:44:34;;;;;;;1.20;0.70;;;11.70;53.10;;;;;;5032803;28;20025;-74
2023/03/20 10:47:02;;;;;;;1.05;0.90;;;11.70;53.00;;;;;;5032856;28;20033;-74
2023/03/20 10:49:54;;;;;;;2.80;1.35;;;11.60;54.50;;;;;;5032399;28;20079;-73
2023/03/20 10:52:31;;;;;;;1.48;0.85;;;11.40;54.00;;;;;;5030817;28;20057;-74
2023/03/20 10:55:05;;;;;;;3.78;0.90;;;11.30;54.30;;;;;;5031300;28;20052;-74
2023/03/20 10:57:36;;;;;;;3.55;1.38;;;11.20;55.60;;;;;;5032650;28;20037;-73
2023/03/20 11:00:03;;;;;;;5.07;3.22;;;11.10;55.60;;;;;;5047354;28;20029;-74
2023/03/20 11:02:30;;;;;;;1.27;1.05;;;11.20;56.00;;;;;;5031967;28;20027;-74
2023/03/20 11:04:59;;;;;;;1.95;1.35;;;11.00;57.60;;;;;;5031990;28;20032;-75
2023/03/20 11:07:30;;;;;;;2.17;1.30;;;11.10;57.00;;;;;;5032012;28;20058;-74
2023/03/20 11:10:07;;;;;;;3.67;1.17;;;11.20;56.90;;;;;;5031776;28;20033;-75
2023/03/20 11:12:41;;;;;;;2.42;1.50;;;11.30;63.10;;;;;;5032135;28;20037;-75
2023/03/20 11:15:20;;;;;;;1.55;1.23;;;11.50;59.60;;;;;;5032165;28;20021;-74
2023/03/20 11:17:54;;;;;;;1.70;1.15;;;11.70;58.60;;;;;;5032246;28;20025;-75
2023/03/20 11:20:20;;;;;;;2.97;0.80;;;12.00;60.30;;;;;;5032251;28;20124;-73
2023/03/20 11:22:48;;;;;;;2.45;0.90;;;12.20;58.10;;;;;;5031820;28;20467;-75
2023/03/20 11:25:30;;;;;;;0.73;0.73;;;12.40;54.80;;;;;;5031982;28;20478;-76
2023/03/20 11:27:57;;;;;;;1.48;1.00;;;12.00;53.90;;;;;;5031922;28;20034;-75
2023/03/20 11:30:23;;;;;;;2.25;0.70;;;11.60;54.20;;;;;;5032323;28;20018;-75
2023/03/20 11:32:50;;;;;;;2.00;1.00;;;11.30;55.30;;;;;;5032259;28;20041;-75
2023/03/20 11:35:34;;;;;;;2.35;0.93;;;11.30;55.80;;;;;;5031985;28;20128;-74
2023/03/20 11:38:13;;;;;;;1.40;0.80;;;11.20;55.80;;;;;;5032233;28;20536;-75
2023/03/20 11:40:39;;;;;;;2.03;0.80;;;11.10;56.50;;;;;;5032077;28;20033;-74
2023/03/20 11:43:13;;;;;;;5.20;1.15;;;11.10;56.00;;;;;;5030677;28;20021;-75
2023/03/20 11:45:43;;;;;;;1.23;1.00;;;11.20;56.00;;;;;;5032129;28;20021;-74
2023/03/20 11:48:39;;;;;;;1.42;1.10;;;11.30;55.70;;;;;;5031272;28;20257;-74
2023/03/20 11:51:09;;;;;;;1.55;0.95;;;11.30;55.70;;;;;;5029044;28;20052;-75
2023/03/20 11:53:38;;;;;;;2.53;1.17;;;11.20;56.00;;;;;;5031475;28;20029;-74
2023/03/20 11:56:10;;;;;;;1.17;1.00;;;11.20;57.80;;;;;;5031389;28;20061;-74
2023/03/20 11:58:47;;;;;;;2.85;1.50;;;11.30;57.40;;;;;;5031478;28;20025;-74
2023/03/20 12:01:13;;;;;;;4.35;1.20;;;11.40;55.70;;;;;;5031569;28;20021;-75
2023/03/20 12:03:43;;;;;;;3.15;1.20;;;11.50;55.90;;;;;;5031677;28;20095;-75
2023/03/20 12:06:23;;;;;;;3.03;0.93;;;11.50;56.30;;;;;;5033584;28;20056;-74
2023/03/20 12:09:03;;;;;;;1.55;1.00;;;11.60;55.30;;;;;;5042666;28;20026;-75
2023/03/20 12:11:54;;;;;;;1.88;1.30;;;11.50;56.20;;;;;;5036090;28;20036;-73
2023/03/20 12:14:46;;;;;;;1.73;1.08;;;11.50;55.60;;;;;;5034144;28;20030;-73
2023/03/20 12:17:11;;;;;;;2.20;0.95;;;11.30;56.10;;;;;;5035455;28;20041;-73
2023/03/20 12:19:39;;;;;;;2.30;0.88;;;11.50;55.60;;;;;;5035344;28;20025;-74
2023/03/20 12:22:24;;;;;;;2.33;1.00;;;11.60;55.60;;;;;;5035164;28;20021;-74
2023/03/20 12:25:02;;;;;;;1.45;0.80;;;11.60;55.00;;;;;;5035227;28;20378;-74
2023/03/20 12:27:36;;;;;;;4.15;1.10;;;11.70;55.40;;;;;;5035121;28;20392;-74
2023/03/20 12:30:20;;;;;;;1.57;1.00;;;11.80;55.50;;;;;;5035043;28;20075;-74
2023/03/20 12:33:20;;;;;;;1.63;0.80;;;11.90;54.80;;;;;;5034808;28;20347;-76
2023/03/20 12:35:50;;;;;;;3.35;0.88;;;11.90;54.60;;;;;;5035388;28;20029;-74
2023/03/20 12:38:22;;;;;;;0.82;0.82;;;12.00;54.30;;;;;;5035230;28;20401;-76
2023/03/20 12:40:52;;;;;;;0.88;0.70;;;12.00;54.30;;;;;;5035308;28;20021;-75
2023/03/20 12:43:23;;;;;;;0.88;0.57;;;11.80;53.10;;;;;;5033708;28;20079;-74
2023/03/20 12:45:56;;;;;;;0.75;0.60;;;11.90;53.30;;;;;;5033916;28;20034;-74
2023/03/20 12:48:41;;;;;;;1.27;0.95;;;11.80;53.30;;;;;;5033426;28;20076;-74
2023/03/20 12:51:20;;;;;;;1.42;0.80;;;11.80;53.40;;;;;;5033341;28;20370;-74
2023/03/20 12:54:05;;;;;;;1.50;0.95;;;11.70;54.00;;;;;;5033453;28;20102;-74
2023/03/20 12:56:46;;;;;;;1.27;0.80;;;11.80;53.50;;;;;;5030915;28;20033;-74
2023/03/20 12:59:26;;;;;;;3.15;0.70;;;11.90;53.20;;;;;;5030503;28;20036;-73
2023/03/20 13:01:57;;;;;;;1.73;0.85;;;11.70;53.30;;;;;;5030953;28;20482;-73
2023/03/20 13:04:26;;;;;;;1.13;0.90;;;11.70;53.60;;;;;;5033394;28;20030;-73
2023/03/20 13:06:55;;;;;;;2.83;0.93;;;11.70;53.30;;;;;;5034488;28;20517;-73
2023/03/20 13:09:41;;;;;;;1.45;1.15;;;11.80;53.20;;;;;;5033531;28;20088;-73